Weather History for Oakland, MD

Change the Weather History Date:

Thursday, December 15, 2011

  Actual Average (KMGW) Record (KMGW)
Temperature  
Mean Temperature 48 °F 35 °F  
Max Temperature 51 °F 42 °F 77 °F (1971)
Min Temperature 46 °F 27 °F 5 °F (1963)
Degree Days  
Heating Degree Days 16 30  
Month to date heating degree days 423  
Since 1 July heating degree days 1471  
Cooling Degree Days 0 0  
Month to date cooling degree days 0  
Year to date cooling degree days 814  
Moisture  
Dew Point 45 °F    
Average Humidity 82    
Maximum Humidity 100    
Minimum Humidity 58    
Precipitation  
Precipitation 0.00 in 0.09 in 1.82 in (1948)
Month to date precipitation 1.50  
Year to date precipitation 40.42  
Sea Level Pressure  
Sea Level Pressure 29.98 in    
Wind  
Wind Speed 14 mph (SW)    
Max Wind Speed 24 mph    
Max Gust Speed 48 mph    
Visibility 8 miles    
Events      
T = Trace of Precipitation, MM = Missing Value Source: NWS Daily Summary

Daily Weather History Graph

Daily Weather History Graph

Search for Another Location

Airport:

Trip Planner

Search our weather history database for the weather conditions in past years. The results will help you decide how hot, cold, wet, or windy it might be!

Date:

Astronomy

Dec. 15, 2011 Rise Set
Actual Time 7:30 AM EST 4:54 PM EST
Civil Twilight 7:00 AM EST 5:24 PM EST
Nautical Twilight 6:26 AM EST 5:58 PM EST
Astronomical Twilight 5:53 AM EST 6:31 PM EST
Moon 10:17 PM EST (12/15) 10:46 AM EST (12/15)
Length of Visible Light 10h 24m
Length of Day
9h 23m
Waning Gibbous, 75% of the Moon is Illuminated
Dec 15
Waning Gibbous
Dec 17
Last Quarter
Dec 24
New
Jan 1
First Quarter
Jan 9
Full

Hourly Weather History & Observations

Time (EST) Temp. Windchill Dew Point Humidity Pressure Visibility Wind Dir Wind Speed Gust Speed Precip Events Conditions
12:15 AM 46.4 °F 40.4 °F 35.6 °F 66% 30.11 in 10.0 mi SSW 13.8 mph - N/A   Scattered Clouds
12:35 AM 46.4 °F 41.1 °F 35.6 °F 66% 30.11 in 10.0 mi SSW 11.5 mph - N/A   Clear
12:55 AM 46.4 °F 41.1 °F 35.6 °F 66% 30.10 in 10.0 mi SSW 11.5 mph - N/A   Clear
1:15 AM 46.4 °F 41.1 °F 35.6 °F 66% 30.09 in 10.0 mi SSW 11.5 mph - N/A   Clear
1:35 AM 48.2 °F - 35.6 °F 62% 30.09 in 10.0 mi SSW 11.5 mph - N/A   Clear
2:10 AM 48.2 °F - 37.4 °F 66% 30.09 in 10.0 mi SSW 13.8 mph - N/A   Clear
2:30 AM 48.2 °F - 37.4 °F 66% 30.08 in 10.0 mi SSW 11.5 mph - N/A   Clear
2:50 AM 50.0 °F - 37.4 °F 62% 30.08 in 10.0 mi SSW 11.5 mph 21.9 mph N/A   Clear
3:30 AM 50.0 °F - 37.4 °F 62% 30.07 in 10.0 mi SW 11.5 mph 18.4 mph N/A   Scattered Clouds
3:50 AM 50.0 °F - 37.4 °F 62% 30.07 in 10.0 mi SW 11.5 mph 17.3 mph N/A   Mostly Cloudy
4:10 AM 51.8 °F - 37.4 °F 58% 30.07 in 10.0 mi SW 13.8 mph 18.4 mph N/A   Overcast
4:25 AM 51.8 °F - 39.2 °F 62% 30.07 in 10.0 mi SW 11.5 mph 21.9 mph N/A   Overcast
4:45 AM 51.8 °F - 39.2 °F 62% 30.07 in 10.0 mi SW 10.4 mph 21.9 mph N/A   Overcast
5:05 AM 51.8 °F - 39.2 °F 62% 30.06 in 10.0 mi SW 12.7 mph 19.6 mph N/A   Overcast
5:25 AM 51.8 °F - 39.2 °F 62% 30.06 in 10.0 mi SW 13.8 mph 20.7 mph N/A   Overcast
5:45 AM 51.8 °F - 41.0 °F 67% 30.05 in 10.0 mi SW 12.7 mph 18.4 mph N/A   Overcast
6:05 AM 51.8 °F - 41.0 °F 67% 30.04 in 10.0 mi SSW 12.7 mph 18.4 mph N/A   Overcast
6:25 AM 51.8 °F - 41.0 °F 67% 30.04 in 10.0 mi SSW 12.7 mph 18.4 mph N/A   Overcast
6:40 AM 51.8 °F - 41.0 °F 67% 30.03 in 10.0 mi SW 12.7 mph 18.4 mph N/A   Overcast
7:00 AM 51.8 °F - 41.0 °F 67% 30.04 in 10.0 mi SW 11.5 mph 20.7 mph N/A   Overcast
7:20 AM 51.8 °F - 41.0 °F 67% 30.03 in 10.0 mi SSW 15.0 mph 20.7 mph N/A   Overcast
7:40 AM 51.8 °F - 42.8 °F 71% 30.03 in 10.0 mi SW 13.8 mph 24.2 mph N/A   Overcast
8:00 AM 51.8 °F - 42.8 °F 71% 30.02 in 10.0 mi SW 12.7 mph 21.9 mph N/A   Overcast
8:40 AM 51.8 °F - 42.8 °F 71% 30.01 in 10.0 mi SW 13.8 mph 23.0 mph N/A   Overcast
8:55 AM 51.8 °F - 42.8 °F 71% 30.01 in 10.0 mi SW 16.1 mph 27.6 mph N/A   Overcast
9:15 AM 51.8 °F - 44.6 °F 76% 29.99 in 7.0 mi SSW 15.0 mph 25.3 mph N/A   Overcast
9:35 AM 50.0 °F - 46.4 °F 87% 29.99 in 10.0 mi SW 13.8 mph 24.2 mph N/A   Overcast
9:55 AM 51.8 °F - 46.4 °F 82% 29.99 in 10.0 mi SW 15.0 mph 23.0 mph N/A   Overcast
10:15 AM 51.8 °F - 46.4 °F 82% 29.98 in 10.0 mi SW 15.0 mph 26.5 mph N/A   Overcast
10:35 AM 51.8 °F - 46.4 °F 82% 29.98 in 10.0 mi SW 11.5 mph 21.9 mph N/A   Overcast
10:55 AM 51.8 °F - 46.4 °F 82% 29.96 in 10.0 mi SW 16.1 mph 26.5 mph N/A   Overcast
11:15 AM 51.8 °F - 46.4 °F 82% 29.96 in 7.0 mi SW 12.7 mph 25.3 mph N/A   Overcast
11:50 AM 51.8 °F - 48.2 °F 88% 29.93 in 10.0 mi SW 13.8 mph 28.8 mph N/A   Overcast
12:10 PM 51.8 °F - 50.0 °F 94% 29.92 in 7.0 mi SW 16.1 mph 31.1 mph N/A   Overcast
12:30 PM 50.0 °F - 50.0 °F 100% 29.91 in 3.0 mi SW 10.4 mph 25.3 mph N/A   Overcast
12:50 PM 51.8 °F - 51.8 °F 100% 29.90 in 5.0 mi SW 19.6 mph 29.9 mph N/A   Overcast
1:10 PM 51.8 °F - 51.8 °F 100% 29.89 in 7.0 mi SW 17.3 mph 28.8 mph N/A   Overcast
1:30 PM 50.0 °F - 50.0 °F 100% 29.90 in 1.8 mi SW 20.7 mph 27.6 mph N/A   Overcast
1:50 PM 50.0 °F - 50.0 °F 100% 29.88 in 2.5 mi SW 15.0 mph 27.6 mph N/A   Overcast
2:05 PM 50.0 °F - 50.0 °F 100% 29.88 in 2.5 mi SW 15.0 mph 31.1 mph N/A   Overcast
2:25 PM 50.0 °F - 50.0 °F 100% 29.88 in 4.0 mi SW 18.4 mph 28.8 mph N/A   Overcast
2:45 PM 50.0 °F - 50.0 °F 100% 29.88 in 2.0 mi SW 18.4 mph 32.2 mph N/A   Overcast
3:05 PM 50.0 °F - 50.0 °F 100% 29.88 in 2.0 mi SW 20.7 mph 35.7 mph N/A   Overcast
3:45 PM 50.0 °F - 50.0 °F 100% 29.88 in 5.0 mi WSW 18.4 mph 31.1 mph N/A   Overcast
4:05 PM 50.0 °F - 50.0 °F 100% 29.88 in 4.0 mi WSW 24.2 mph 32.2 mph N/A   Overcast
4:20 PM 51.8 °F - 51.8 °F 100% 29.88 in 10.0 mi SW 19.6 mph 48.3 mph N/A   Overcast
4:40 PM 51.8 °F - 51.8 °F 100% 29.88 in 10.0 mi WSW 16.1 mph 32.2 mph N/A   Overcast
5:00 PM 51.8 °F - 51.8 °F 100% 29.88 in 10.0 mi WSW 20.7 mph 33.4 mph N/A   Overcast
5:20 PM 51.8 °F - 51.8 °F 100% 29.88 in 10.0 mi WSW 21.9 mph 29.9 mph N/A   Overcast
5:40 PM 51.8 °F - 51.8 °F 100% 29.88 in 10.0 mi WSW 17.3 mph 28.8 mph N/A   Overcast
6:00 PM 51.8 °F - 51.8 °F 100% 29.88 in 3.0 mi WSW 15.0 mph 32.2 mph N/A   Overcast
6:15 PM 50.0 °F - 50.0 °F 100% 29.88 in 5.0 mi WSW 16.1 mph 28.8 mph N/A   Overcast
6:35 PM 51.8 °F - 51.8 °F 100% 29.88 in 5.0 mi WSW 15.0 mph 31.1 mph N/A   Overcast
6:55 PM 50.0 °F - 50.0 °F 100% 29.88 in 5.0 mi WSW 23.0 mph 34.5 mph N/A   Overcast
7:15 PM 51.8 °F - 51.8 °F 100% 29.88 in 10.0 mi WSW 17.3 mph 40.3 mph N/A   Overcast
7:55 PM 50.0 °F - 50.0 °F 100% 29.90 in 4.0 mi West 18.4 mph 26.5 mph N/A   Overcast
8:15 PM 50.0 °F - 50.0 °F 100% 29.90 in 4.0 mi West 23.0 mph 29.9 mph N/A   Overcast
8:30 PM 50.0 °F - 50.0 °F 100% 29.90 in 10.0 mi WSW 17.3 mph 32.2 mph N/A   Overcast
8:50 PM 50.0 °F - 50.0 °F 100% 29.90 in 10.0 mi West 18.4 mph 29.9 mph N/A   Overcast
9:10 PM 50.0 °F - 50.0 °F 100% 29.90 in 5.0 mi WSW 15.0 mph 24.2 mph N/A   Overcast
9:30 PM 50.0 °F - 50.0 °F 100% 29.91 in 10.0 mi West 13.8 mph 25.3 mph N/A   Overcast
9:50 PM 48.2 °F - 48.2 °F 100% 29.92 in 10.0 mi West 17.3 mph 28.8 mph N/A   Overcast
10:10 PM 46.4 °F 40.4 °F 46.4 °F 100% 29.92 in 10.0 mi West 13.8 mph 34.5 mph N/A   Overcast
10:30 PM 46.4 °F 40.7 °F 46.4 °F 100% 29.92 in 10.0 mi West 12.7 mph 28.8 mph N/A   Unknown
10:45 PM 46.4 °F 39.8 °F 46.4 °F 100% 29.92 in 10.0 mi West 16.1 mph 28.8 mph N/A   Overcast
11:05 PM 46.4 °F 40.4 °F 44.6 °F 93% 29.94 in 10.0 mi West 13.8 mph 31.1 mph N/A   Overcast
11:25 PM 44.6 °F 38.1 °F 44.6 °F 100% 29.94 in 10.0 mi West 13.8 mph 28.8 mph N/A   Overcast
11:45 PM 44.6 °F 38.1 °F 42.8 °F 93% 29.95 in 10.0 mi West 13.8 mph 32.2 mph N/A   Overcast